French Village, Canada
Current Conditions -  °F | °C
As of 12:00 AM on Wednesday 28 Jan 2015 (Local Time) from CYHZ Reporting Station
Freezing Drizzle Freezing Drizzle  
Wind Chill: 12°   Ceiling: 300
Heat Index: 25°   Visibility: 2mi
Dew Point: 25°   Wind: 15mph
Humidity: 100%   Direction: 360°N
Pressure: 29.4"   Gusts: 22mph
Location:  44.7°N, 63.88°W
Report Text: CYHZ 280400Z 36013G19KT 2SM -FZDZ BR OVC003 M04/M04 A2940 RMK ST8 SLP965
Loading
Personal Weather Stations






























Interactive Weather Map New forecast layout! Learn more

10-Day Weather Forecast

Advertisements
Track Severe Weather on mobile